createdAt,value
2017-09-26T00:00:23.104Z,19.07
2017-09-26T00:02:51.500Z,15.90
2017-09-26T00:05:19.124Z,13.60
2017-09-26T00:07:46.784Z,15.67
2017-09-26T00:10:14.403Z,14.70
2017-09-26T00:12:42.038Z,16.50
2017-09-26T00:15:09.700Z,13.87
2017-09-26T00:17:37.346Z,14.70
2017-09-26T00:20:05.736Z,13.73
2017-09-26T00:22:34.154Z,14.13
2017-09-26T00:25:01.768Z,16.43
2017-09-26T00:27:30.182Z,14.93
2017-09-26T00:29:57.843Z,16.13
2017-09-26T00:32:25.493Z,13.60
2017-09-26T00:34:53.114Z,12.90
2017-09-26T00:37:20.776Z,16.27
2017-09-26T00:39:48.404Z,16.17
2017-09-26T00:42:16.049Z,19.73
2017-09-26T00:44:43.680Z,20.23
2017-09-26T00:47:12.044Z,17.53
2017-09-26T00:49:39.645Z,16.03
2017-09-26T00:52:07.284Z,16.77
2017-09-26T00:54:35.655Z,18.23
2017-09-26T00:57:04.021Z,18.03
2017-09-26T00:59:31.655Z,18.93
2017-09-26T01:01:59.253Z,16.80
2017-09-26T01:04:27.609Z,14.70
2017-09-26T01:06:56.058Z,19.60
2017-09-26T01:09:23.665Z,17.93
2017-09-26T01:11:51.265Z,19.00
2017-09-26T01:14:18.896Z,20.73
2017-09-26T01:16:47.264Z,18.20
2017-09-26T01:19:14.875Z,19.90
2017-09-26T01:21:42.507Z,19.20
2017-09-26T01:24:10.869Z,17.57
2017-09-26T01:26:39.228Z,18.67
2017-09-26T01:29:06.858Z,16.53
2017-09-26T01:31:34.449Z,19.50
2017-09-26T01:34:02.067Z,21.73
2017-09-26T01:36:29.692Z,19.60
2017-09-26T01:38:58.048Z,20.90
2017-09-26T01:44:00.485Z,22.07
2017-09-26T01:46:28.077Z,19.83
2017-09-26T01:48:55.679Z,18.77
2017-09-26T01:51:24.085Z,18.97
2017-09-26T01:53:51.681Z,21.70
2017-09-26T01:56:19.319Z,19.43
2017-09-26T01:59:02.699Z,20.17
2017-09-26T02:01:30.331Z,23.10
2017-09-26T02:03:57.936Z,22.50
2017-09-26T02:06:25.552Z,22.53
2017-09-26T02:08:53.176Z,21.20
2017-09-26T02:11:20.774Z,21.80
2017-09-26T02:13:48.409Z,16.20
2017-09-26T02:16:16.017Z,22.57
2017-09-26T02:18:43.645Z,24.20
2017-09-26T02:21:11.240Z,23.97
2017-09-26T02:23:38.863Z,25.87
2017-09-26T02:26:06.460Z,19.50
2017-09-26T02:28:34.089Z,20.13
2017-09-26T02:31:01.690Z,21.10
2017-09-26T02:33:29.324Z,20.67
2017-09-26T02:35:56.921Z,20.77
2017-09-26T02:38:25.321Z,23.53
2017-09-26T02:40:52.932Z,20.70
2017-09-26T02:43:20.530Z,18.17
2017-09-26T02:45:48.935Z,20.23
2017-09-26T02:48:16.536Z,21.10
2017-09-26T02:50:44.141Z,21.37
2017-09-26T02:53:11.787Z,21.47
2017-09-26T02:55:40.160Z,19.50
2017-09-26T02:58:07.794Z,28.70
2017-09-26T03:00:36.164Z,23.93
2017-09-26T03:03:03.792Z,23.10
2017-09-26T03:05:31.396Z,20.77
2017-09-26T03:07:59.019Z,20.83
2017-09-26T03:10:26.621Z,19.53
2017-09-26T03:12:54.283Z,23.40
2017-09-26T03:15:21.914Z,22.50
2017-09-26T03:17:49.509Z,27.20
2017-09-26T03:20:17.142Z,22.10
2017-09-26T03:22:44.745Z,21.93
2017-09-26T03:25:12.368Z,23.03
2017-09-26T03:27:39.972Z,26.80
2017-09-26T03:30:08.373Z,25.97
2017-09-26T03:32:35.988Z,22.33
2017-09-26T03:35:03.608Z,21.70
2017-09-26T03:37:31.217Z,20.47
2017-09-26T03:39:58.852Z,27.80
2017-09-26T03:42:26.451Z,27.10
2017-09-26T03:44:54.069Z,23.27
2017-09-26T03:47:21.688Z,27.40
2017-09-26T03:49:50.048Z,25.00
2017-09-26T03:52:17.706Z,25.27
2017-09-26T03:54:45.313Z,25.80
2017-09-26T03:57:12.915Z,31.50
2017-09-26T03:59:40.571Z,19.57
2017-09-26T04:02:08.169Z,26.67
2017-09-26T04:04:36.568Z,26.83
2017-09-26T04:07:04.164Z,26.60
2017-09-26T04:09:31.779Z,24.90
2017-09-26T04:11:59.377Z,32.07
2017-09-26T04:14:27.000Z,25.53
2017-09-26T04:16:54.597Z,26.83
2017-09-26T04:19:22.224Z,32.43
2017-09-26T04:21:49.832Z,28.90
2017-09-26T04:24:17.434Z,29.10
2017-09-26T04:26:45.820Z,20.40
2017-09-26T04:29:14.189Z,28.20
2017-09-26T04:31:42.592Z,27.60
2017-09-26T04:34:10.189Z,28.00
2017-09-26T04:36:37.828Z,29.67
2017-09-26T04:39:05.422Z,28.20
2017-09-26T04:41:33.021Z,29.70
2017-09-26T04:44:00.648Z,26.20
2017-09-26T04:46:28.273Z,29.80
2017-09-26T04:48:55.900Z,25.27
2017-09-26T04:51:24.266Z,24.87
2017-09-26T04:53:52.666Z,26.57
2017-09-26T04:56:20.281Z,28.30
2017-09-26T04:58:47.908Z,30.53
2017-09-26T05:01:15.497Z,28.43
2017-09-26T05:03:43.090Z,23.60
2017-09-26T05:06:11.480Z,29.10
2017-09-26T05:08:39.836Z,27.53
2017-09-26T05:11:07.459Z,30.50
2017-09-26T05:13:35.058Z,35.33
2017-09-26T05:16:02.655Z,19.70
2017-09-26T05:18:30.292Z,33.80
2017-09-26T05:20:58.652Z,29.90
2017-09-26T05:23:26.249Z,34.43
2017-09-26T05:25:53.872Z,23.57
2017-09-26T05:28:22.983Z,30.37
2017-09-26T05:30:51.383Z,32.00
2017-09-26T05:33:18.984Z,32.87
2017-09-26T05:35:46.577Z,25.03
2017-09-26T05:38:14.196Z,25.70
2017-09-26T05:40:41.788Z,35.57
2017-09-26T05:43:09.429Z,33.13
2017-09-26T05:45:37.029Z,33.93
2017-09-26T05:48:05.400Z,31.80
2017-09-26T05:50:33.046Z,35.80
2017-09-26T05:53:00.661Z,24.27
2017-09-26T05:55:28.266Z,31.40
2017-09-26T05:57:55.884Z,27.03
2017-09-26T06:00:23.495Z,21.90
2017-09-26T06:02:51.122Z,28.70
2017-09-26T06:05:18.713Z,25.50
2017-09-26T06:07:46.320Z,31.60
2017-09-26T06:10:13.964Z,30.80
2017-09-26T06:12:42.324Z,26.67
2017-09-26T06:15:09.958Z,24.40
2017-09-26T06:17:37.556Z,32.67
2017-09-26T06:20:05.974Z,33.60
2017-09-26T06:22:33.576Z,27.00
2017-09-26T06:25:01.206Z,34.03
2017-09-26T06:27:28.805Z,33.50
2017-09-26T06:29:57.182Z,36.53
2017-09-26T06:32:24.801Z,37.50
2017-09-26T06:34:52.404Z,35.07
2017-09-26T06:37:20.024Z,35.80
2017-09-26T06:39:47.624Z,34.90
2017-09-26T06:42:15.258Z,35.00
2017-09-26T06:44:42.857Z,31.00
2017-09-26T06:47:11.221Z,33.30
2017-09-26T06:49:38.844Z,32.27
2017-09-26T06:52:06.445Z,26.80
2017-09-26T06:54:34.082Z,31.40
2017-09-26T06:57:01.681Z,24.07
2017-09-26T06:59:30.040Z,31.10
2017-09-26T07:01:57.665Z,32.00
2017-09-26T07:04:25.248Z,31.33
2017-09-26T07:06:52.864Z,27.63
2017-09-26T07:09:20.533Z,31.80
2017-09-26T07:11:48.172Z,29.80
2017-09-26T07:14:16.532Z,31.53
2017-09-26T07:16:44.137Z,28.97
2017-09-26T07:19:11.777Z,26.70
2017-09-26T07:21:40.144Z,29.17
2017-09-26T07:24:08.504Z,34.00
2017-09-26T07:26:37.638Z,33.63
2017-09-26T07:29:05.241Z,31.03
2017-09-26T07:31:32.881Z,34.67
2017-09-26T07:34:00.476Z,28.93
2017-09-26T07:36:28.077Z,35.37
2017-09-26T07:38:55.716Z,34.10
2017-09-26T07:41:24.084Z,34.47
2017-09-26T07:43:51.679Z,33.93
2017-09-26T07:46:19.300Z,33.23
2017-09-26T07:48:46.900Z,35.13
2017-09-26T07:51:14.536Z,37.73
2017-09-26T07:53:42.935Z,32.33
2017-09-26T07:56:10.532Z,30.17
2017-09-26T07:58:38.148Z,40.50
2017-09-26T08:01:07.286Z,40.13
2017-09-26T08:03:35.495Z,35.50
2017-09-26T08:06:03.530Z,32.67
2017-09-26T08:08:32.007Z,32.00
2017-09-26T08:10:59.633Z,34.03
2017-09-26T08:13:27.997Z,36.50
2017-09-26T08:15:55.647Z,31.20
2017-09-26T08:18:23.249Z,30.43
2017-09-26T08:20:50.849Z,36.27
2017-09-26T08:23:18.474Z,37.47
2017-09-26T08:25:46.071Z,44.73
2017-09-26T08:28:13.708Z,48.10
2017-09-26T08:30:41.496Z,38.07
2017-09-26T08:33:09.096Z,36.17
2017-09-26T08:35:39.408Z,35.67
2017-09-26T08:38:07.888Z,27.40
2017-09-26T08:40:36.303Z,31.40
2017-09-26T08:43:03.898Z,42.77
2017-09-26T08:45:31.497Z,35.40
2017-09-26T08:47:59.972Z,30.73
2017-09-26T08:50:27.598Z,36.00
2017-09-26T08:52:55.217Z,38.73
2017-09-26T08:55:22.882Z,40.60
2017-09-26T08:57:50.483Z,31.87
2017-09-26T09:00:18.852Z,40.93
2017-09-26T09:02:46.480Z,39.70
2017-09-26T09:05:14.089Z,44.37
2017-09-26T09:07:41.694Z,36.90
2017-09-26T09:10:10.085Z,41.87
2017-09-26T09:12:37.685Z,39.67
2017-09-26T09:15:05.317Z,31.07
2017-09-26T09:17:32.924Z,36.40
2017-09-26T09:20:00.544Z,34.63
2017-09-26T09:22:28.165Z,40.03
2017-09-26T09:24:56.529Z,38.67
2017-09-26T09:27:24.220Z,40.63
2017-09-26T09:29:52.590Z,39.27
2017-09-26T09:32:20.964Z,38.10
2017-09-26T09:34:49.384Z,48.80
2017-09-26T09:37:17.065Z,48.13
2017-09-26T09:39:44.748Z,30.97
2017-09-26T09:42:12.578Z,40.20
2017-09-26T09:44:40.180Z,45.30
2017-09-26T09:47:07.815Z,46.40
2017-09-26T09:49:35.412Z,33.97
2017-09-26T09:52:03.781Z,41.50
2017-09-26T09:54:31.421Z,42.00
2017-09-26T09:56:59.008Z,39.40
2017-09-26T09:59:26.632Z,45.07
2017-09-26T10:01:54.264Z,38.33
2017-09-26T10:04:21.870Z,38.47
2017-09-26T10:06:49.477Z,40.87
2017-09-26T10:09:17.116Z,32.20
2017-09-26T10:11:45.479Z,39.37
2017-09-26T10:14:13.100Z,37.83
2017-09-26T10:16:40.697Z,37.27
2017-09-26T10:19:08.304Z,38.57
2017-09-26T10:21:35.936Z,36.60
2017-09-26T10:24:04.305Z,40.13
2017-09-26T10:26:31.915Z,39.40
2017-09-26T10:28:59.572Z,40.03
2017-09-26T10:31:27.168Z,40.87
2017-09-26T10:33:54.800Z,37.13
2017-09-26T10:36:22.389Z,48.80
2017-09-26T10:38:50.757Z,36.27
2017-09-26T10:41:18.520Z,38.37
2017-09-26T10:43:46.115Z,35.97
2017-09-26T10:46:13.738Z,40.20
2017-09-26T10:48:41.413Z,33.23
2017-09-26T10:51:09.009Z,44.57
2017-09-26T10:53:37.373Z,40.53
2017-09-26T10:56:05.761Z,36.20
2017-09-26T10:58:33.593Z,42.17
2017-09-26T11:01:01.472Z,40.57
2017-09-26T11:03:29.358Z,45.83
2017-09-26T11:05:57.205Z,37.13
2017-09-26T11:08:25.079Z,39.77
2017-09-26T11:10:52.837Z,37.23
2017-09-26T11:13:20.606Z,40.80
2017-09-26T11:15:48.605Z,37.17
2017-09-26T11:18:17.111Z,41.23
2017-09-26T11:20:44.935Z,40.03
2017-09-26T11:23:12.596Z,40.33
2017-09-26T11:25:40.372Z,36.00
2017-09-26T11:28:08.826Z,38.63
2017-09-26T11:30:36.696Z,30.77
2017-09-26T11:33:04.922Z,33.90
2017-09-26T11:35:33.550Z,28.37
2017-09-26T11:38:01.413Z,34.90
2017-09-26T11:40:29.218Z,35.47
2017-09-26T11:42:57.597Z,30.60
2017-09-26T11:45:26.043Z,39.43
2017-09-26T11:47:54.207Z,32.50
2017-09-26T11:50:21.899Z,29.63
2017-09-26T11:52:49.602Z,30.73
2017-09-26T11:55:17.480Z,31.30
2017-09-26T11:57:45.099Z,33.77
2017-09-26T12:00:13.421Z,33.13
2017-09-26T12:02:41.075Z,32.67
2017-09-26T12:05:08.774Z,29.53
2017-09-26T12:07:37.269Z,30.73
2017-09-26T12:10:05.666Z,34.10
2017-09-26T12:12:34.165Z,26.57
2017-09-26T12:15:01.986Z,32.30
2017-09-26T12:17:29.616Z,36.93
2017-09-26T12:19:57.516Z,31.03
2017-09-26T12:22:26.047Z,29.00
2017-09-26T12:24:53.715Z,29.10
2017-09-26T12:27:21.412Z,29.07
2017-09-26T12:29:49.051Z,30.20
2017-09-26T12:32:16.907Z,30.57
2017-09-26T12:34:44.628Z,29.20
2017-09-26T12:37:12.341Z,30.57
2017-09-26T12:39:39.958Z,28.40
2017-09-26T12:42:07.700Z,30.27
2017-09-26T12:44:35.373Z,31.57
2017-09-26T12:47:03.056Z,34.03
2017-09-26T12:49:31.512Z,32.97
2017-09-26T12:51:59.248Z,29.50
2017-09-26T12:54:26.904Z,30.47
2017-09-26T12:56:54.558Z,34.70
2017-09-26T12:59:22.214Z,26.73
2017-09-26T13:01:49.962Z,31.97
2017-09-26T13:04:17.620Z,35.43
2017-09-26T13:06:45.269Z,25.50
2017-09-26T13:09:13.839Z,25.83
2017-09-26T13:11:42.205Z,29.63
2017-09-26T13:14:09.834Z,25.17
2017-09-26T13:16:37.436Z,24.90
2017-09-26T13:19:05.036Z,25.30
2017-09-26T13:21:32.697Z,28.47
2017-09-26T13:24:00.293Z,27.80
2017-09-26T13:26:27.898Z,26.70
2017-09-26T13:28:55.540Z,32.83
2017-09-26T13:31:23.138Z,27.50
2017-09-26T13:33:50.754Z,24.73
2017-09-26T13:36:18.389Z,27.53
2017-09-26T13:38:45.995Z,34.67
2017-09-26T13:41:14.376Z,32.70
2017-09-26T13:43:42.773Z,34.03
2017-09-26T13:46:10.401Z,30.50
2017-09-26T13:48:38.061Z,32.87
2017-09-26T13:51:05.686Z,31.97
2017-09-26T13:53:33.303Z,32.40
2017-09-26T13:56:01.693Z,32.73
2017-09-26T13:58:29.310Z,31.43
2017-09-26T14:00:56.910Z,30.57
2017-09-26T14:03:25.315Z,26.13
2017-09-26T14:05:52.921Z,29.83
2017-09-26T14:08:20.536Z,27.90
2017-09-26T14:10:48.170Z,28.63
2017-09-26T14:13:15.775Z,28.53
2017-09-26T14:15:43.381Z,29.73
2017-09-26T14:18:11.016Z,29.53
2017-09-26T14:20:38.620Z,34.50
2017-09-26T14:23:06.215Z,31.07
2017-09-26T14:25:33.861Z,30.30
2017-09-26T14:28:01.472Z,26.80
2017-09-26T14:30:29.096Z,27.00
2017-09-26T14:32:56.738Z,25.87
2017-09-26T14:35:24.335Z,27.70
2017-09-26T14:37:51.956Z,26.70
2017-09-26T14:40:19.586Z,26.37
2017-09-26T14:42:47.952Z,30.23
2017-09-26T14:45:15.557Z,30.57
2017-09-26T14:47:43.192Z,27.77
2017-09-26T14:50:10.792Z,29.63
2017-09-26T14:52:38.397Z,26.17
2017-09-26T14:55:06.045Z,26.10
2017-09-26T14:57:33.653Z,27.93
2017-09-26T15:00:01.254Z,26.93
2017-09-26T15:02:29.655Z,32.00
2017-09-26T15:04:57.265Z,27.00
2017-09-26T15:07:24.861Z,25.30
2017-09-26T15:09:52.495Z,22.40
2017-09-26T15:12:20.326Z,25.97
2017-09-26T15:14:48.821Z,25.03
2017-09-26T15:17:16.553Z,25.47
2017-09-26T15:19:44.205Z,26.43
2017-09-26T15:22:11.808Z,26.40
2017-09-26T15:24:39.409Z,27.00
2017-09-26T15:27:07.037Z,25.40
2017-09-26T15:29:34.664Z,26.90
2017-09-26T15:32:02.273Z,25.90
2017-09-26T15:34:29.892Z,26.33
2017-09-26T15:36:58.281Z,25.80
2017-09-26T15:39:26.678Z,24.70
2017-09-26T15:41:54.280Z,25.80
2017-09-26T15:44:21.912Z,25.33
2017-09-26T15:46:49.515Z,26.97
2017-09-26T15:49:17.900Z,26.77
2017-09-26T15:51:45.532Z,24.77
2017-09-26T15:54:13.128Z,28.13
2017-09-26T15:56:40.764Z,25.73
2017-09-26T15:59:09.154Z,23.97
2017-09-26T16:01:36.764Z,24.43
2017-09-26T16:04:04.403Z,22.63
2017-09-26T16:06:32.762Z,25.80
2017-09-26T16:09:00.385Z,21.50
2017-09-26T16:11:27.988Z,25.00
2017-09-26T16:13:55.594Z,21.03
2017-09-26T16:16:25.594Z,22.20
2017-09-26T16:18:53.328Z,25.23
2017-09-26T16:21:20.933Z,21.17
2017-09-26T16:23:48.565Z,25.17
2017-09-26T16:26:16.933Z,25.47
2017-09-26T16:28:45.302Z,22.87
2017-09-26T16:31:13.069Z,25.00
2017-09-26T16:33:40.820Z,25.10
2017-09-26T16:36:08.653Z,29.37
2017-09-26T16:38:36.377Z,25.13
2017-09-26T16:41:04.897Z,24.47
2017-09-26T16:43:32.707Z,25.27
2017-09-26T16:46:00.513Z,28.07
2017-09-26T16:48:28.318Z,25.27
2017-09-26T16:50:56.184Z,24.30
2017-09-26T16:53:24.061Z,28.10
2017-09-26T16:55:52.324Z,25.20
2017-09-26T16:58:20.145Z,29.10
2017-09-26T17:00:47.958Z,23.77
2017-09-26T17:03:15.833Z,23.77
2017-09-26T17:05:43.695Z,29.37
2017-09-26T17:08:11.558Z,26.07
2017-09-26T17:10:39.434Z,26.23
2017-09-26T17:13:07.295Z,30.93
2017-09-26T17:15:35.872Z,32.30
2017-09-26T17:18:03.649Z,31.13
2017-09-26T17:20:31.417Z,35.87
2017-09-26T17:23:00.809Z,28.10
2017-09-26T17:25:28.675Z,32.00
2017-09-26T17:27:56.537Z,30.37
2017-09-26T17:30:24.400Z,30.37
2017-09-26T17:32:52.270Z,28.13
2017-09-26T17:35:20.038Z,31.03
2017-09-26T17:37:47.903Z,29.70
2017-09-26T17:40:15.767Z,28.67
2017-09-26T17:42:43.742Z,28.00
2017-09-26T17:45:11.601Z,33.93
2017-09-26T17:47:39.475Z,25.97
2017-09-26T17:50:07.347Z,24.83
2017-09-26T17:52:35.210Z,30.80
2017-09-26T17:55:03.080Z,32.27
2017-09-26T17:57:30.939Z,34.77
2017-09-26T17:59:59.214Z,32.87
2017-09-26T18:02:27.084Z,34.30
2017-09-26T18:04:55.055Z,28.60
2017-09-26T18:07:23.334Z,38.57
2017-09-26T18:09:51.190Z,31.33
2017-09-26T18:12:19.084Z,32.70
2017-09-26T18:14:46.892Z,29.00
2017-09-26T18:17:16.992Z,25.27
2017-09-26T18:19:47.591Z,32.00
2017-09-26T18:22:17.849Z,29.13
2017-09-26T18:24:47.707Z,31.27
2017-09-26T18:27:18.664Z,30.43
2017-09-26T18:29:49.410Z,25.10
2017-09-26T18:32:19.657Z,30.27
2017-09-26T18:34:49.729Z,34.00
2017-09-26T18:37:21.208Z,29.23
2017-09-26T18:39:51.499Z,27.50
2017-09-26T18:42:21.645Z,24.83
2017-09-26T18:44:51.606Z,28.23
2017-09-26T18:47:22.521Z,30.70
2017-09-26T18:49:52.432Z,27.17
2017-09-26T18:52:22.819Z,35.60
2017-09-26T18:54:53.551Z,34.03
2017-09-26T18:57:23.832Z,26.70
2017-09-26T18:59:54.541Z,30.77
2017-09-26T19:02:24.758Z,32.70
2017-09-26T19:04:54.848Z,38.37
2017-09-26T19:07:24.928Z,36.33
2017-09-26T19:09:54.941Z,34.13
2017-09-26T19:12:24.049Z,35.57
2017-09-26T19:14:51.649Z,37.53
2017-09-26T19:17:19.240Z,34.00
2017-09-26T19:19:47.654Z,33.87
2017-09-26T19:22:15.261Z,29.13
2017-09-26T19:24:45.123Z,30.60
2017-09-26T19:27:12.776Z,35.17
2017-09-26T19:29:40.368Z,32.10
2017-09-26T19:32:07.998Z,35.20
2017-09-26T19:34:35.629Z,33.37
2017-09-26T19:37:03.996Z,32.60
2017-09-26T19:39:31.591Z,35.30
2017-09-26T19:41:59.280Z,34.10
2017-09-26T19:44:26.905Z,34.43
2017-09-26T19:46:55.264Z,27.17
2017-09-26T19:49:22.893Z,27.53
2017-09-26T19:51:50.491Z,31.83
2017-09-26T19:54:18.958Z,27.40
2017-09-26T19:56:49.482Z,35.83
2017-09-26T19:59:17.259Z,36.33
2017-09-26T20:01:45.666Z,34.73
2017-09-26T20:04:13.261Z,36.50
2017-09-26T20:06:40.898Z,38.30
2017-09-26T20:09:08.509Z,31.20
2017-09-26T20:11:36.109Z,36.33
2017-09-26T20:14:03.728Z,31.93
2017-09-26T20:16:32.102Z,34.33
2017-09-26T20:18:59.736Z,34.40
2017-09-26T20:21:27.331Z,41.97
2017-09-26T20:23:54.932Z,29.13
2017-09-26T20:26:22.557Z,34.17
2017-09-26T20:28:50.153Z,32.37
2017-09-26T20:31:17.757Z,41.20
2017-09-26T20:33:45.393Z,35.37
2017-09-26T20:36:12.995Z,39.93
2017-09-26T20:38:40.741Z,32.50
2017-09-26T20:41:08.364Z,33.27
2017-09-26T20:43:35.968Z,35.17
2017-09-26T20:46:03.589Z,30.30
2017-09-26T20:48:31.185Z,30.23
2017-09-26T20:50:58.828Z,30.50
2017-09-26T20:53:26.429Z,37.27
2017-09-26T20:55:54.059Z,39.90
2017-09-26T20:58:21.661Z,32.53
2017-09-26T21:00:50.020Z,32.27
2017-09-26T21:03:17.912Z,31.27
2017-09-26T21:05:46.286Z,37.13
2017-09-26T21:08:14.643Z,25.63
2017-09-26T21:10:42.265Z,32.20
2017-09-26T21:13:09.881Z,30.60
2017-09-26T21:15:38.249Z,38.10
2017-09-26T21:18:06.620Z,36.80
2017-09-26T21:20:34.257Z,37.13
2017-09-26T21:23:01.857Z,39.63
2017-09-26T21:25:29.482Z,38.10
2017-09-26T21:27:57.080Z,41.90
2017-09-26T21:30:25.484Z,41.50
2017-09-26T21:32:53.080Z,39.90
2017-09-26T21:35:20.684Z,33.53
2017-09-26T21:37:49.141Z,32.80
2017-09-26T21:40:16.736Z,43.10
2017-09-26T21:42:45.140Z,48.40
2017-09-26T21:45:13.605Z,28.90
2017-09-26T21:47:41.205Z,31.50
2017-09-26T21:50:08.973Z,30.13
2017-09-26T21:52:36.580Z,40.23
2017-09-26T21:55:04.944Z,34.57
2017-09-26T21:57:32.568Z,40.13
2017-09-26T22:00:00.164Z,39.43
2017-09-26T22:02:27.798Z,44.53
2017-09-26T22:04:55.401Z,48.13
2017-09-26T22:07:23.815Z,44.80
2017-09-26T22:09:51.457Z,43.80
2017-09-26T22:12:19.821Z,41.07
2017-09-26T22:14:48.239Z,43.60
2017-09-26T22:17:15.833Z,42.67
2017-09-26T22:19:43.432Z,49.93
2017-09-26T22:22:11.054Z,38.77
2017-09-26T22:24:38.657Z,46.67
2017-09-26T22:27:06.294Z,41.23
2017-09-26T22:29:34.671Z,31.90
2017-09-26T22:32:03.072Z,35.33
2017-09-26T22:34:30.668Z,40.80
2017-09-26T22:36:58.267Z,28.40
2017-09-26T22:39:26.665Z,30.67
2017-09-26T22:41:55.037Z,43.43
2017-09-26T22:44:23.434Z,36.60
2017-09-26T22:46:51.070Z,29.30
2017-09-26T22:49:19.474Z,33.90
2017-09-26T22:51:47.074Z,38.23
2017-09-26T22:54:14.676Z,43.83
2017-09-26T22:56:43.069Z,39.33
2017-09-26T22:59:10.673Z,42.93
2017-09-26T23:01:38.312Z,44.43
2017-09-26T23:04:06.399Z,51.37
2017-09-26T23:06:34.013Z,43.57
2017-09-26T23:09:02.406Z,46.23
2017-09-26T23:11:30.005Z,42.30
2017-09-26T23:13:57.651Z,38.07
2017-09-26T23:16:25.259Z,47.70
2017-09-26T23:18:53.624Z,38.67
2017-09-26T23:21:21.561Z,47.27
2017-09-26T23:23:49.177Z,39.93
2017-09-26T23:26:17.539Z,40.13
2017-09-26T23:28:45.155Z,46.33
2017-09-26T23:31:12.767Z,46.30
2017-09-26T23:33:40.400Z,43.50
2017-09-26T23:36:07.996Z,34.27
2017-09-26T23:38:36.366Z,48.17
2017-09-26T23:41:05.065Z,44.27
2017-09-26T23:43:33.444Z,43.50
2017-09-26T23:46:01.851Z,47.87
2017-09-26T23:48:29.461Z,34.53
2017-09-26T23:50:57.069Z,45.00
2017-09-26T23:53:24.704Z,46.00
2017-09-26T23:55:53.077Z,40.87
2017-09-26T23:58:21.451Z,48.90
